sensor_id;sensor_type;location;lat;lon;timestamp;temperature;humidity
31527;DHT22;18136;42.236;-73.040;2022-12-29T00:01:14;0.60;99.90
31527;DHT22;18136;42.236;-73.040;2022-12-29T00:03:40;0.60;99.90
31527;DHT22;18136;42.236;-73.040;2022-12-29T00:06:06;0.60;99.90
31527;DHT22;18136;42.236;-73.040;2022-12-29T00:08:32;0.60;99.90
31527;DHT22;18136;42.236;-73.040;2022-12-29T00:11:16;0.60;99.90
31527;DHT22;18136;42.236;-73.040;2022-12-29T00:13:42;0.60;99.90
31527;DHT22;18136;42.236;-73.040;2022-12-29T00:16:28;0.60;99.90
31527;DHT22;18136;42.236;-73.040;2022-12-29T00:18:54;0.60;99.90
31527;DHT22;18136;42.236;-73.040;2022-12-29T00:21:21;0.70;99.90
31527;DHT22;18136;42.236;-73.040;2022-12-29T00:24:13;0.60;99.90
31527;DHT22;18136;42.236;-73.040;2022-12-29T00:27:03;0.60;99.90
31527;DHT22;18136;42.236;-73.040;2022-12-29T00:29:53;0.60;99.90
31527;DHT22;18136;42.236;-73.040;2022-12-29T00:32:38;0.60;99.90
31527;DHT22;18136;42.236;-73.040;2022-12-29T00:35:28;0.60;99.90
31527;DHT22;18136;42.236;-73.040;2022-12-29T00:37:57;0.60;99.90
31527;DHT22;18136;42.236;-73.040;2022-12-29T00:40:43;0.60;99.90
31527;DHT22;18136;42.236;-73.040;2022-12-29T00:43:27;0.60;99.90
31527;DHT22;18136;42.236;-73.040;2022-12-29T00:46:12;0.60;99.90
31527;DHT22;18136;42.236;-73.040;2022-12-29T00:48:38;0.60;99.90
31527;DHT22;18136;42.236;-73.040;2022-12-29T00:51:22;0.60;99.90
31527;DHT22;18136;42.236;-73.040;2022-12-29T00:53:50;0.60;99.90
31527;DHT22;18136;42.236;-73.040;2022-12-29T00:56:18;0.60;99.90
31527;DHT22;18136;42.236;-73.040;2022-12-29T00:58:46;0.60;99.90
31527;DHT22;18136;42.236;-73.040;2022-12-29T01:01:13;0.60;99.90
31527;DHT22;18136;42.236;-73.040;2022-12-29T01:03:39;0.60;99.90
31527;DHT22;18136;42.236;-73.040;2022-12-29T01:06:09;0.60;99.90
31527;DHT22;18136;42.236;-73.040;2022-12-29T01:08:37;0.60;99.90
31527;DHT22;18136;42.236;-73.040;2022-12-29T01:11:10;0.60;99.90
31527;DHT22;18136;42.236;-73.040;2022-12-29T01:13:37;0.60;99.90
31527;DHT22;18136;42.236;-73.040;2022-12-29T01:16:07;0.60;99.90
31527;DHT22;18136;42.236;-73.040;2022-12-29T01:18:34;0.60;99.90
31527;DHT22;18136;42.236;-73.040;2022-12-29T01:21:05;0.60;99.90
31527;DHT22;18136;42.236;-73.040;2022-12-29T01:23:31;0.60;99.90
31527;DHT22;18136;42.236;-73.040;2022-12-29T01:26:13;0.60;99.90
31527;DHT22;18136;42.236;-73.040;2022-12-29T01:28:39;0.60;99.90
31527;DHT22;18136;42.236;-73.040;2022-12-29T01:31:12;0.50;99.90
31527;DHT22;18136;42.236;-73.040;2022-12-29T01:33:40;0.60;99.90
31527;DHT22;18136;42.236;-73.040;2022-12-29T01:36:10;0.60;99.90
31527;DHT22;18136;42.236;-73.040;2022-12-29T01:38:37;0.60;99.90
31527;DHT22;18136;42.236;-73.040;2022-12-29T01:41:06;0.60;99.90
31527;DHT22;18136;42.236;-73.040;2022-12-29T01:43:50;0.60;99.90
31527;DHT22;18136;42.236;-73.040;2022-12-29T01:46:34;0.50;99.90
31527;DHT22;18136;42.236;-73.040;2022-12-29T01:49:12;0.50;99.90
31527;DHT22;18136;42.236;-73.040;2022-12-29T01:51:48;0.50;99.90
31527;DHT22;18136;42.236;-73.040;2022-12-29T01:54:29;0.50;99.90
31527;DHT22;18136;42.236;-73.040;2022-12-29T01:57:00;0.50;99.90
31527;DHT22;18136;42.236;-73.040;2022-12-29T01:59:34;0.50;99.90
31527;DHT22;18136;42.236;-73.040;2022-12-29T02:02:03;0.50;99.90
31527;DHT22;18136;42.236;-73.040;2022-12-29T02:04:32;0.50;99.90
31527;DHT22;18136;42.236;-73.040;2022-12-29T02:07:03;0.50;99.90
31527;DHT22;18136;42.236;-73.040;2022-12-29T02:09:31;0.50;99.90
31527;DHT22;18136;42.236;-73.040;2022-12-29T02:11:59;0.50;99.90
31527;DHT22;18136;42.236;-73.040;2022-12-29T02:14:28;0.50;99.90
31527;DHT22;18136;42.236;-73.040;2022-12-29T02:31:59;0.40;99.90
31527;DHT22;18136;42.236;-73.040;2022-12-29T02:34:36;0.40;99.90
31527;DHT22;18136;42.236;-73.040;2022-12-29T02:37:17;0.40;99.90
31527;DHT22;18136;42.236;-73.040;2022-12-29T02:48:22;0.20;99.90
31527;DHT22;18136;42.236;-73.040;2022-12-29T02:51:55;0.20;99.90
31527;DHT22;18136;42.236;-73.040;2022-12-29T02:53:55;0.20;99.90
31527;DHT22;18136;42.236;-73.040;2022-12-29T02:56:40;0.30;99.90
31527;DHT22;18136;42.236;-73.040;2022-12-29T02:59:08;0.30;99.90
31527;DHT22;18136;42.236;-73.040;2022-12-29T03:05:22;0.30;99.90
31527;DHT22;18136;42.236;-73.040;2022-12-29T03:10:35;0.20;99.90
31527;DHT22;18136;42.236;-73.040;2022-12-29T03:13:54;0.20;99.90
31527;DHT22;18136;42.236;-73.040;2022-12-29T03:16:22;0.20;99.90
31527;DHT22;18136;42.236;-73.040;2022-12-29T03:22:08;0.20;99.90
31527;DHT22;18136;42.236;-73.040;2022-12-29T03:24:59;0.20;99.90
31527;DHT22;18136;42.236;-73.040;2022-12-29T03:27:30;0.20;99.90
31527;DHT22;18136;42.236;-73.040;2022-12-29T03:30:02;0.20;99.90
31527;DHT22;18136;42.236;-73.040;2022-12-29T03:32:38;0.10;99.90
31527;DHT22;18136;42.236;-73.040;2022-12-29T03:35:05;0.10;99.90
31527;DHT22;18136;42.236;-73.040;2022-12-29T03:37:40;0.10;99.90
31527;DHT22;18136;42.236;-73.040;2022-12-29T03:40:07;0.20;99.90
31527;DHT22;18136;42.236;-73.040;2022-12-29T03:42:35;0.10;99.90
31527;DHT22;18136;42.236;-73.040;2022-12-29T03:45:05;0.20;99.90
31527;DHT22;18136;42.236;-73.040;2022-12-29T03:47:32;0.20;99.90
31527;DHT22;18136;42.236;-73.040;2022-12-29T03:49:58;0.20;99.90
31527;DHT22;18136;42.236;-73.040;2022-12-29T03:52:24;0.20;99.90
31527;DHT22;18136;42.236;-73.040;2022-12-29T03:54:50;0.20;99.90
31527;DHT22;18136;42.236;-73.040;2022-12-29T03:57:16;0.20;99.90
31527;DHT22;18136;42.236;-73.040;2022-12-29T03:59:42;0.30;99.90
31527;DHT22;18136;42.236;-73.040;2022-12-29T04:02:08;0.30;99.90
31527;DHT22;18136;42.236;-73.040;2022-12-29T04:04:34;0.30;99.90
31527;DHT22;18136;42.236;-73.040;2022-12-29T04:07:00;0.30;99.90
31527;DHT22;18136;42.236;-73.040;2022-12-29T04:09:26;0.30;99.90
31527;DHT22;18136;42.236;-73.040;2022-12-29T04:11:52;0.30;99.90
31527;DHT22;18136;42.236;-73.040;2022-12-29T04:14:18;0.30;99.90
31527;DHT22;18136;42.236;-73.040;2022-12-29T04:16:44;0.40;99.90
31527;DHT22;18136;42.236;-73.040;2022-12-29T04:19:11;0.30;99.90
31527;DHT22;18136;42.236;-73.040;2022-12-29T04:21:37;0.30;99.90
31527;DHT22;18136;42.236;-73.040;2022-12-29T04:24:03;0.30;99.90
31527;DHT22;18136;42.236;-73.040;2022-12-29T04:26:32;0.30;99.90
31527;DHT22;18136;42.236;-73.040;2022-12-29T04:28:58;0.30;99.90
31527;DHT22;18136;42.236;-73.040;2022-12-29T04:31:24;0.30;99.90
31527;DHT22;18136;42.236;-73.040;2022-12-29T04:33:50;0.30;99.90
31527;DHT22;18136;42.236;-73.040;2022-12-29T04:36:16;0.30;99.90
31527;DHT22;18136;42.236;-73.040;2022-12-29T04:38:43;0.30;99.90
31527;DHT22;18136;42.236;-73.040;2022-12-29T04:41:09;0.30;99.90
31527;DHT22;18136;42.236;-73.040;2022-12-29T04:43:35;0.20;99.90
31527;DHT22;18136;42.236;-73.040;2022-12-29T04:46:01;0.20;99.90
31527;DHT22;18136;42.236;-73.040;2022-12-29T04:48:27;0.20;99.90
31527;DHT22;18136;42.236;-73.040;2022-12-29T04:50:53;0.20;99.90
31527;DHT22;18136;42.236;-73.040;2022-12-29T04:53:19;0.20;99.90
31527;DHT22;18136;42.236;-73.040;2022-12-29T04:55:49;0.20;99.90
31527;DHT22;18136;42.236;-73.040;2022-12-29T04:58:15;0.20;99.90
31527;DHT22;18136;42.236;-73.040;2022-12-29T05:00:41;0.20;99.90
31527;DHT22;18136;42.236;-73.040;2022-12-29T05:03:08;0.20;99.90
31527;DHT22;18136;42.236;-73.040;2022-12-29T05:05:34;0.20;99.90
31527;DHT22;18136;42.236;-73.040;2022-12-29T05:08:00;0.10;99.90
31527;DHT22;18136;42.236;-73.040;2022-12-29T05:10:26;0.10;99.90
31527;DHT22;18136;42.236;-73.040;2022-12-29T05:12:52;0.10;99.90
31527;DHT22;18136;42.236;-73.040;2022-12-29T05:15:18;0.10;99.90
31527;DHT22;18136;42.236;-73.040;2022-12-29T05:17:44;0.00;99.90
31527;DHT22;18136;42.236;-73.040;2022-12-29T05:20:11;0.10;99.90
31527;DHT22;18136;42.236;-73.040;2022-12-29T05:22:37;0.10;99.90
31527;DHT22;18136;42.236;-73.040;2022-12-29T05:25:03;0.10;99.90
31527;DHT22;18136;42.236;-73.040;2022-12-29T05:27:29;0.10;99.90
31527;DHT22;18136;42.236;-73.040;2022-12-29T05:29:59;0.10;99.90
31527;DHT22;18136;42.236;-73.040;2022-12-29T05:32:25;0.00;99.90
31527;DHT22;18136;42.236;-73.040;2022-12-29T05:34:51;0.00;99.90
31527;DHT22;18136;42.236;-73.040;2022-12-29T05:37:17;0.10;99.90
31527;DHT22;18136;42.236;-73.040;2022-12-29T05:39:44;0.10;99.90
31527;DHT22;18136;42.236;-73.040;2022-12-29T05:42:10;0.10;99.90
31527;DHT22;18136;42.236;-73.040;2022-12-29T05:44:36;0.10;99.90
31527;DHT22;18136;42.236;-73.040;2022-12-29T05:47:02;0.10;99.90
31527;DHT22;18136;42.236;-73.040;2022-12-29T05:49:28;0.00;99.90
31527;DHT22;18136;42.236;-73.040;2022-12-29T05:51:54;0.00;99.90
31527;DHT22;18136;42.236;-73.040;2022-12-29T05:54:20;0.00;99.90
31527;DHT22;18136;42.236;-73.040;2022-12-29T05:56:46;-0.10;99.90
31527;DHT22;18136;42.236;-73.040;2022-12-29T05:59:12;-0.10;99.90
31527;DHT22;18136;42.236;-73.040;2022-12-29T06:01:38;-0.20;99.90
31527;DHT22;18136;42.236;-73.040;2022-12-29T06:04:04;-0.20;99.90
31527;DHT22;18136;42.236;-73.040;2022-12-29T06:06:31;-0.20;99.90
31527;DHT22;18136;42.236;-73.040;2022-12-29T06:08:57;-0.20;99.90
31527;DHT22;18136;42.236;-73.040;2022-12-29T06:11:23;-0.20;99.90
31527;DHT22;18136;42.236;-73.040;2022-12-29T06:13:49;-0.30;99.90
31527;DHT22;18136;42.236;-73.040;2022-12-29T06:16:15;-0.30;99.90
31527;DHT22;18136;42.236;-73.040;2022-12-29T06:18:41;-0.30;99.90
31527;DHT22;18136;42.236;-73.040;2022-12-29T06:21:07;-0.30;99.90
31527;DHT22;18136;42.236;-73.040;2022-12-29T06:23:33;-0.40;99.90
31527;DHT22;18136;42.236;-73.040;2022-12-29T06:26:00;-0.40;99.90
31527;DHT22;18136;42.236;-73.040;2022-12-29T06:28:26;-0.40;99.90
31527;DHT22;18136;42.236;-73.040;2022-12-29T06:30:52;-0.50;99.90
31527;DHT22;18136;42.236;-73.040;2022-12-29T06:33:18;-0.50;99.90
31527;DHT22;18136;42.236;-73.040;2022-12-29T06:35:44;-0.50;99.90
31527;DHT22;18136;42.236;-73.040;2022-12-29T06:38:11;-0.50;99.90
31527;DHT22;18136;42.236;-73.040;2022-12-29T06:40:37;-0.60;99.90
31527;DHT22;18136;42.236;-73.040;2022-12-29T06:43:03;-0.60;99.90
31527;DHT22;18136;42.236;-73.040;2022-12-29T06:45:30;-0.60;99.90
31527;DHT22;18136;42.236;-73.040;2022-12-29T06:47:56;-0.50;99.90
31527;DHT22;18136;42.236;-73.040;2022-12-29T06:50:22;-0.60;99.90
31527;DHT22;18136;42.236;-73.040;2022-12-29T06:52:48;-0.60;99.90
31527;DHT22;18136;42.236;-73.040;2022-12-29T06:55:14;-0.60;99.90
31527;DHT22;18136;42.236;-73.040;2022-12-29T06:57:40;-0.70;99.90
31527;DHT22;18136;42.236;-73.040;2022-12-29T07:00:07;-0.60;99.90
31527;DHT22;18136;42.236;-73.040;2022-12-29T07:02:33;-0.60;99.90
31527;DHT22;18136;42.236;-73.040;2022-12-29T07:04:59;-0.60;99.90
31527;DHT22;18136;42.236;-73.040;2022-12-29T07:07:25;-0.60;99.90
31527;DHT22;18136;42.236;-73.040;2022-12-29T07:09:51;-0.60;99.90
31527;DHT22;18136;42.236;-73.040;2022-12-29T07:12:17;-0.60;99.90
31527;DHT22;18136;42.236;-73.040;2022-12-29T07:14:43;-0.60;99.90
31527;DHT22;18136;42.236;-73.040;2022-12-29T07:17:09;-0.60;99.90
31527;DHT22;18136;42.236;-73.040;2022-12-29T07:19:35;-0.60;99.90
31527;DHT22;18136;42.236;-73.040;2022-12-29T07:22:01;-0.60;99.90
31527;DHT22;18136;42.236;-73.040;2022-12-29T07:24:27;-0.60;99.90
31527;DHT22;18136;42.236;-73.040;2022-12-29T07:26:55;-0.70;99.90
31527;DHT22;18136;42.236;-73.040;2022-12-29T07:29:21;-0.70;99.90
31527;DHT22;18136;42.236;-73.040;2022-12-29T07:31:47;-0.60;99.90
31527;DHT22;18136;42.236;-73.040;2022-12-29T07:34:13;-0.60;99.90
31527;DHT22;18136;42.236;-73.040;2022-12-29T07:36:39;-0.60;99.90
31527;DHT22;18136;42.236;-73.040;2022-12-29T07:39:07;-0.60;99.90
31527;DHT22;18136;42.236;-73.040;2022-12-29T07:41:33;-0.60;99.90
31527;DHT22;18136;42.236;-73.040;2022-12-29T07:44:00;-0.60;99.90
31527;DHT22;18136;42.236;-73.040;2022-12-29T07:46:26;-0.60;99.90
31527;DHT22;18136;42.236;-73.040;2022-12-29T07:48:52;-0.60;99.90
31527;DHT22;18136;42.236;-73.040;2022-12-29T07:51:18;-0.60;99.90
31527;DHT22;18136;42.236;-73.040;2022-12-29T07:53:44;-0.50;99.90
31527;DHT22;18136;42.236;-73.040;2022-12-29T07:56:10;-0.50;99.90
31527;DHT22;18136;42.236;-73.040;2022-12-29T07:58:36;-0.50;99.90
31527;DHT22;18136;42.236;-73.040;2022-12-29T08:01:03;-0.50;99.90
31527;DHT22;18136;42.236;-73.040;2022-12-29T08:03:29;-0.50;99.90
31527;DHT22;18136;42.236;-73.040;2022-12-29T08:05:56;-0.50;99.90
31527;DHT22;18136;42.236;-73.040;2022-12-29T08:08:22;-0.40;99.90
31527;DHT22;18136;42.236;-73.040;2022-12-29T08:10:48;-0.40;99.90
31527;DHT22;18136;42.236;-73.040;2022-12-29T08:13:14;-0.40;99.90
31527;DHT22;18136;42.236;-73.040;2022-12-29T08:15:40;-0.50;99.90
31527;DHT22;18136;42.236;-73.040;2022-12-29T08:18:07;-0.40;99.90
31527;DHT22;18136;42.236;-73.040;2022-12-29T08:20:33;-0.40;99.90
31527;DHT22;18136;42.236;-73.040;2022-12-29T08:22:59;-0.50;99.90
31527;DHT22;18136;42.236;-73.040;2022-12-29T08:25:25;-0.50;99.90
31527;DHT22;18136;42.236;-73.040;2022-12-29T08:27:51;-0.50;99.90
31527;DHT22;18136;42.236;-73.040;2022-12-29T08:30:17;-0.50;99.90
31527;DHT22;18136;42.236;-73.040;2022-12-29T08:32:43;-0.50;99.90
31527;DHT22;18136;42.236;-73.040;2022-12-29T08:35:09;-0.50;99.90
31527;DHT22;18136;42.236;-73.040;2022-12-29T08:37:35;-0.50;99.90
31527;DHT22;18136;42.236;-73.040;2022-12-29T08:40:01;-0.40;99.90
31527;DHT22;18136;42.236;-73.040;2022-12-29T08:42:30;-0.40;99.90
31527;DHT22;18136;42.236;-73.040;2022-12-29T08:44:59;-0.40;99.90
31527;DHT22;18136;42.236;-73.040;2022-12-29T08:47:26;-0.30;99.90
31527;DHT22;18136;42.236;-73.040;2022-12-29T08:49:52;-0.30;99.90
31527;DHT22;18136;42.236;-73.040;2022-12-29T08:52:19;-0.30;99.90
31527;DHT22;18136;42.236;-73.040;2022-12-29T08:54:45;-0.30;99.90
31527;DHT22;18136;42.236;-73.040;2022-12-29T08:57:11;-0.30;99.90
31527;DHT22;18136;42.236;-73.040;2022-12-29T08:59:37;-0.20;99.90
31527;DHT22;18136;42.236;-73.040;2022-12-29T09:02:03;-0.20;99.90
31527;DHT22;18136;42.236;-73.040;2022-12-29T09:04:29;-0.20;99.90
31527;DHT22;18136;42.236;-73.040;2022-12-29T09:06:55;-0.20;99.90
31527;DHT22;18136;42.236;-73.040;2022-12-29T09:09:21;-0.20;99.90
31527;DHT22;18136;42.236;-73.040;2022-12-29T09:11:48;-0.10;99.90
31527;DHT22;18136;42.236;-73.040;2022-12-29T09:14:14;-0.10;99.90
31527;DHT22;18136;42.236;-73.040;2022-12-29T09:16:40;-0.10;99.90
31527;DHT22;18136;42.236;-73.040;2022-12-29T09:19:25;0.00;99.90
31527;DHT22;18136;42.236;-73.040;2022-12-29T09:21:52;0.00;99.90
31527;DHT22;18136;42.236;-73.040;2022-12-29T09:24:18;0.00;99.90
31527;DHT22;18136;42.236;-73.040;2022-12-29T09:26:44;0.00;99.90
31527;DHT22;18136;42.236;-73.040;2022-12-29T09:29:10;0.00;99.90
31527;DHT22;18136;42.236;-73.040;2022-12-29T09:31:36;0.10;99.90
31527;DHT22;18136;42.236;-73.040;2022-12-29T09:34:02;0.10;99.90
31527;DHT22;18136;42.236;-73.040;2022-12-29T09:36:28;0.10;99.90
31527;DHT22;18136;42.236;-73.040;2022-12-29T09:38:55;0.10;99.90
31527;DHT22;18136;42.236;-73.040;2022-12-29T09:41:36;0.20;99.90
31527;DHT22;18136;42.236;-73.040;2022-12-29T09:47:10;0.20;99.90
31527;DHT22;18136;42.236;-73.040;2022-12-29T09:49:47;0.20;99.90
31527;DHT22;18136;42.236;-73.040;2022-12-29T09:52:21;0.20;99.90
31527;DHT22;18136;42.236;-73.040;2022-12-29T09:54:55;0.20;99.90
31527;DHT22;18136;42.236;-73.040;2022-12-29T09:59:57;0.30;99.90
31527;DHT22;18136;42.236;-73.040;2022-12-29T10:02:42;0.30;99.90
31527;DHT22;18136;42.236;-73.040;2022-12-29T10:10:58;0.30;99.90
31527;DHT22;18136;42.236;-73.040;2022-12-29T10:22:12;0.30;99.90
31527;DHT22;18136;42.236;-73.040;2022-12-29T10:24:46;0.30;99.90
31527;DHT22;18136;42.236;-73.040;2022-12-29T10:27:14;0.30;99.90
31527;DHT22;18136;42.236;-73.040;2022-12-29T10:29:54;0.30;99.90
31527;DHT22;18136;42.236;-73.040;2022-12-29T10:32:34;0.30;99.90
31527;DHT22;18136;42.236;-73.040;2022-12-29T10:35:24;0.30;99.90
31527;DHT22;18136;42.236;-73.040;2022-12-29T10:40:42;0.30;99.90
31527;DHT22;18136;42.236;-73.040;2022-12-29T10:45:51;0.30;99.90
31527;DHT22;18136;42.236;-73.040;2022-12-29T10:48:27;0.30;99.90
31527;DHT22;18136;42.236;-73.040;2022-12-29T10:50:57;0.30;99.90
31527;DHT22;18136;42.236;-73.040;2022-12-29T10:53:38;0.30;99.90
31527;DHT22;18136;42.236;-73.040;2022-12-29T10:59:25;0.40;99.90
31527;DHT22;18136;42.236;-73.040;2022-12-29T11:04:43;0.30;99.90
31527;DHT22;18136;42.236;-73.040;2022-12-29T11:07:14;0.40;99.90
31527;DHT22;18136;42.236;-73.040;2022-12-29T11:09:45;0.30;99.90
31527;DHT22;18136;42.236;-73.040;2022-12-29T11:12:23;0.40;99.90
31527;DHT22;18136;42.236;-73.040;2022-12-29T11:15:14;0.40;99.90
31527;DHT22;18136;42.236;-73.040;2022-12-29T11:22:58;0.50;99.90
31527;DHT22;18136;42.236;-73.040;2022-12-29T11:25:25;0.50;99.90
31527;DHT22;18136;42.236;-73.040;2022-12-29T11:28:15;0.50;99.90
31527;DHT22;18136;42.236;-73.040;2022-12-29T11:30:43;0.50;99.90
31527;DHT22;18136;42.236;-73.040;2022-12-29T11:33:09;0.50;99.90
31527;DHT22;18136;42.236;-73.040;2022-12-29T11:35:41;0.60;99.90
31527;DHT22;18136;42.236;-73.040;2022-12-29T11:38:20;0.70;99.90
31527;DHT22;18136;42.236;-73.040;2022-12-29T11:40:48;0.80;99.90
31527;DHT22;18136;42.236;-73.040;2022-12-29T11:43:26;0.80;99.90
31527;DHT22;18136;42.236;-73.040;2022-12-29T11:45:55;0.80;99.90
31527;DHT22;18136;42.236;-73.040;2022-12-29T11:48:22;0.80;99.90
31527;DHT22;18136;42.236;-73.040;2022-12-29T11:50:52;0.90;99.90
31527;DHT22;18136;42.236;-73.040;2022-12-29T11:53:28;0.90;99.90
31527;DHT22;18136;42.236;-73.040;2022-12-29T11:56:00;1.00;99.90
31527;DHT22;18136;42.236;-73.040;2022-12-29T11:58:36;1.00;99.90
31527;DHT22;18136;42.236;-73.040;2022-12-29T12:04:04;1.10;99.90
31527;DHT22;18136;42.236;-73.040;2022-12-29T12:06:35;1.00;99.90
31527;DHT22;18136;42.236;-73.040;2022-12-29T12:09:10;1.10;99.90
31527;DHT22;18136;42.236;-73.040;2022-12-29T12:11:42;1.10;99.90
31527;DHT22;18136;42.236;-73.040;2022-12-29T12:16:55;1.10;99.90
31527;DHT22;18136;42.236;-73.040;2022-12-29T12:25:17;1.10;99.90
31527;DHT22;18136;42.236;-73.040;2022-12-29T12:28:06;1.20;99.90
31527;DHT22;18136;42.236;-73.040;2022-12-29T12:30:40;1.20;99.90
31527;DHT22;18136;42.236;-73.040;2022-12-29T12:33:22;1.30;99.90
31527;DHT22;18136;42.236;-73.040;2022-12-29T12:36:35;1.30;99.90
31527;DHT22;18136;42.236;-73.040;2022-12-29T12:41:37;1.50;99.90
31527;DHT22;18136;42.236;-73.040;2022-12-29T12:58:43;1.50;99.90
31527;DHT22;18136;42.236;-73.040;2022-12-29T13:01:46;1.60;99.90
31527;DHT22;18136;42.236;-73.040;2022-12-29T13:15:28;1.80;99.90
31527;DHT22;18136;42.236;-73.040;2022-12-29T13:26:42;2.10;99.90
31527;DHT22;18136;42.236;-73.040;2022-12-29T13:29:23;2.20;99.90
31527;DHT22;18136;42.236;-73.040;2022-12-29T13:35:19;2.30;99.90
31527;DHT22;18136;42.236;-73.040;2022-12-29T13:37:49;2.30;99.90
31527;DHT22;18136;42.236;-73.040;2022-12-29T13:40:21;2.40;99.90
31527;DHT22;18136;42.236;-73.040;2022-12-29T13:42:49;2.40;99.90
31527;DHT22;18136;42.236;-73.040;2022-12-29T13:45:22;2.50;99.90
31527;DHT22;18136;42.236;-73.040;2022-12-29T13:48:17;2.60;99.90
31527;DHT22;18136;42.236;-73.040;2022-12-29T13:50:52;2.60;99.90
31527;DHT22;18136;42.236;-73.040;2022-12-29T13:56:34;2.70;99.90
31527;DHT22;18136;42.236;-73.040;2022-12-29T13:59:21;2.80;99.90
31527;DHT22;18136;42.236;-73.040;2022-12-29T14:05:15;2.90;99.90
31527;DHT22;18136;42.236;-73.040;2022-12-29T14:08:02;3.00;99.90
31527;DHT22;18136;42.236;-73.040;2022-12-29T14:10:32;3.10;99.90
31527;DHT22;18136;42.236;-73.040;2022-12-29T14:15:41;3.20;99.90
31527;DHT22;18136;42.236;-73.040;2022-12-29T14:18:15;3.20;99.90
31527;DHT22;18136;42.236;-73.040;2022-12-29T14:21:07;3.20;99.90
31527;DHT22;18136;42.236;-73.040;2022-12-29T14:23:40;3.20;99.90
31527;DHT22;18136;42.236;-73.040;2022-12-29T14:28:35;3.40;99.90
31527;DHT22;18136;42.236;-73.040;2022-12-29T14:37:00;3.80;99.90
31527;DHT22;18136;42.236;-73.040;2022-12-29T14:39:40;3.90;99.90
31527;DHT22;18136;42.236;-73.040;2022-12-29T14:45:04;4.20;99.90
31527;DHT22;18136;42.236;-73.040;2022-12-29T14:47:45;4.30;99.90
31527;DHT22;18136;42.236;-73.040;2022-12-29T14:52:57;4.40;99.90
31527;DHT22;18136;42.236;-73.040;2022-12-29T14:58:29;4.40;99.90
31527;DHT22;18136;42.236;-73.040;2022-12-29T15:00:57;4.50;99.90
31527;DHT22;18136;42.236;-73.040;2022-12-29T15:03:30;4.40;99.90
31527;DHT22;18136;42.236;-73.040;2022-12-29T15:06:06;4.40;99.90
31527;DHT22;18136;42.236;-73.040;2022-12-29T15:08:44;4.50;99.90
31527;DHT22;18136;42.236;-73.040;2022-12-29T15:11:17;4.50;99.90
31527;DHT22;18136;42.236;-73.040;2022-12-29T15:13:45;4.60;99.90
31527;DHT22;18136;42.236;-73.040;2022-12-29T15:16:32;4.60;99.90
31527;DHT22;18136;42.236;-73.040;2022-12-29T15:18:59;4.70;99.90
31527;DHT22;18136;42.236;-73.040;2022-12-29T15:21:32;4.70;99.90
31527;DHT22;18136;42.236;-73.040;2022-12-29T15:23:58;4.80;99.90
31527;DHT22;18136;42.236;-73.040;2022-12-29T15:26:40;4.80;99.90
31527;DHT22;18136;42.236;-73.040;2022-12-29T15:29:36;4.80;99.90
31527;DHT22;18136;42.236;-73.040;2022-12-29T15:34:42;4.90;99.90
31527;DHT22;18136;42.236;-73.040;2022-12-29T15:37:09;4.90;99.90
31527;DHT22;18136;42.236;-73.040;2022-12-29T15:39:40;4.90;99.90
31527;DHT22;18136;42.236;-73.040;2022-12-29T15:42:19;5.00;99.90
31527;DHT22;18136;42.236;-73.040;2022-12-29T15:44:48;5.10;99.90
31527;DHT22;18136;42.236;-73.040;2022-12-29T15:47:25;5.10;99.90
31527;DHT22;18136;42.236;-73.040;2022-12-29T15:50:01;5.00;99.90
31527;DHT22;18136;42.236;-73.040;2022-12-29T15:52:30;5.10;99.90
31527;DHT22;18136;42.236;-73.040;2022-12-29T15:54:58;5.10;99.90
31527;DHT22;18136;42.236;-73.040;2022-12-29T15:57:36;5.20;99.90
31527;DHT22;18136;42.236;-73.040;2022-12-29T16:00:17;5.20;99.90
31527;DHT22;18136;42.236;-73.040;2022-12-29T16:02:46;5.20;99.90
31527;DHT22;18136;42.236;-73.040;2022-12-29T16:05:17;5.20;99.90
31527;DHT22;18136;42.236;-73.040;2022-12-29T16:07:57;5.30;99.90
31527;DHT22;18136;42.236;-73.040;2022-12-29T16:10:37;5.30;99.90
31527;DHT22;18136;42.236;-73.040;2022-12-29T16:13:42;5.30;99.90
31527;DHT22;18136;42.236;-73.040;2022-12-29T16:16:20;5.40;99.90
31527;DHT22;18136;42.236;-73.040;2022-12-29T16:18:50;5.40;99.90
31527;DHT22;18136;42.236;-73.040;2022-12-29T16:21:24;5.40;99.90
31527;DHT22;18136;42.236;-73.040;2022-12-29T16:23:54;5.50;99.90
31527;DHT22;18136;42.236;-73.040;2022-12-29T16:26:22;5.50;99.90
31527;DHT22;18136;42.236;-73.040;2022-12-29T16:28:53;5.40;99.90
31527;DHT22;18136;42.236;-73.040;2022-12-29T16:32:18;5.40;99.90
31527;DHT22;18136;42.236;-73.040;2022-12-29T16:34:46;5.40;99.90
31527;DHT22;18136;42.236;-73.040;2022-12-29T16:37:29;5.30;99.90
31527;DHT22;18136;42.236;-73.040;2022-12-29T16:39:55;5.30;99.90
31527;DHT22;18136;42.236;-73.040;2022-12-29T16:50:34;5.20;99.90
31527;DHT22;18136;42.236;-73.040;2022-12-29T16:53:02;5.20;99.90
31527;DHT22;18136;42.236;-73.040;2022-12-29T16:55:29;5.10;99.90
31527;DHT22;18136;42.236;-73.040;2022-12-29T16:57:56;5.10;99.90
31527;DHT22;18136;42.236;-73.040;2022-12-29T17:00:26;5.10;99.90
31527;DHT22;18136;42.236;-73.040;2022-12-29T17:02:56;5.10;99.90
31527;DHT22;18136;42.236;-73.040;2022-12-29T17:05:23;5.00;99.90
31527;DHT22;18136;42.236;-73.040;2022-12-29T17:07:51;5.00;99.90
31527;DHT22;18136;42.236;-73.040;2022-12-29T17:10:18;5.10;99.90
31527;DHT22;18136;42.236;-73.040;2022-12-29T17:12:47;5.00;99.90
31527;DHT22;18136;42.236;-73.040;2022-12-29T17:15:21;5.00;99.90
31527;DHT22;18136;42.236;-73.040;2022-12-29T17:17:52;5.00;99.90
31527;DHT22;18136;42.236;-73.040;2022-12-29T17:20:25;5.00;99.90
31527;DHT22;18136;42.236;-73.040;2022-12-29T17:22:52;5.00;99.90
31527;DHT22;18136;42.236;-73.040;2022-12-29T17:25:27;5.00;99.90
31527;DHT22;18136;42.236;-73.040;2022-12-29T17:27:57;5.00;99.90
31527;DHT22;18136;42.236;-73.040;2022-12-29T17:30:25;4.90;99.90
31527;DHT22;18136;42.236;-73.040;2022-12-29T17:33:05;5.00;99.90
31527;DHT22;18136;42.236;-73.040;2022-12-29T17:35:33;5.00;99.90
31527;DHT22;18136;42.236;-73.040;2022-12-29T17:37:59;5.00;99.90
31527;DHT22;18136;42.236;-73.040;2022-12-29T17:40:31;5.00;99.90
31527;DHT22;18136;42.236;-73.040;2022-12-29T17:42:58;5.00;99.90
31527;DHT22;18136;42.236;-73.040;2022-12-29T17:45:31;5.00;99.90
31527;DHT22;18136;42.236;-73.040;2022-12-29T17:47:59;5.00;99.90
31527;DHT22;18136;42.236;-73.040;2022-12-29T17:50:28;5.10;99.90
31527;DHT22;18136;42.236;-73.040;2022-12-29T17:53:00;5.20;99.90
31527;DHT22;18136;42.236;-73.040;2022-12-29T17:55:28;5.10;99.90
31527;DHT22;18136;42.236;-73.040;2022-12-29T17:57:55;5.10;99.90
31527;DHT22;18136;42.236;-73.040;2022-12-29T18:00:23;5.20;99.90
31527;DHT22;18136;42.236;-73.040;2022-12-29T18:02:52;5.10;99.90
31527;DHT22;18136;42.236;-73.040;2022-12-29T18:05:21;5.10;99.90
31527;DHT22;18136;42.236;-73.040;2022-12-29T18:07:52;5.10;99.90
31527;DHT22;18136;42.236;-73.040;2022-12-29T18:10:20;5.10;99.90
31527;DHT22;18136;42.236;-73.040;2022-12-29T18:12:48;5.10;99.90
31527;DHT22;18136;42.236;-73.040;2022-12-29T18:15:30;5.20;99.90